Impacts METAR Board
IDs:

KAGC - Pittsburgh/Allegheny, PA, US

Updated at: 2200 UTC 01 Feb 2023
Potential Impact None Slight Moderate High
Time 01/10Z 01/11Z 01/12Z 01/13Z 01/14Z 01/15Z 01/16Z 01/17Z 01/18Z 01/19Z 01/20Z 01/21Z 01/22Z
Temp18 16 16 15 16 17 18 20 22 24 25 25 25
Dewpt12 11 10 10 9 10 8 9 9 8 9 8 8
Altim30.26 30.27 30.29 30.32 30.34 30.35 30.35 30.35 30.32 30.29 30.28 30.27 30.27
VIS10 10 10 8 10 10 10 10 10 10 10 10 10
CIG16 -- 15 16 -- -- -- -- -- -- -- -- --
CoverOVCSCTOVCOVCSCTSCTCLRCLRCLRCLRCLRCLRCLR
FltCatMVFRVFRMVFRMVFRVFRVFRVFRVFRVFRVFRVFRVFRVFR
WX--------------------------
WDir3303403403203302502702002402902600270
WSpd8 5 5 5 4 5 4 3 8 4 6 0 4
WGst-- -- -- -- -- -- -- -- -- -- -- -- --
Raw hourly METARs
KAGC 010953Z 33008KT 10SM OVC016 M08/M11 A3026 RMK AO2 SLP270 T10781111
KAGC 011053Z 34005KT 10SM SCT016 M09/M12 A3027 RMK AO2 SLP274 T10891117
KAGC 011153Z 34005KT 10SM OVC015 M09/M12 A3029 RMK AO2 SLP281 T10891122 11056 21094 53015
KAGC 011253Z 32005KT 8SM OVC016 M09/M12 A3032 RMK AO2 SLP292 T10941122
KAGC 011353Z 33004KT 10SM SCT018 M09/M13 A3034 RMK AO2 SLP299 T10891128
KAGC 011453Z 25005KT 10SM SCT018 M08/M12 A3035 RMK AO2 SLP304 T10831122 51021
KAGC 011553Z AUTO 27004KT 10SM CLR M08/M13 A3035 RMK AO2 SLP303 T10781133
KAGC 011653Z 20003KT 10SM CLR M07/M13 A3035 RMK AO2 SLP302 T10671128
KAGC 011753Z 24008KT 10SM CLR M06/M13 A3032 RMK AO2 SLP291 T10561128 11056 21094 58012
KAGC 011853Z 29004KT 10SM CLR M04/M13 A3029 RMK AO2 SLP281 T10441133
KAGC 011953Z 26006KT 10SM CLR M04/M13 A3028 RMK AO2 SLP278 T10391128
KAGC 012053Z 00000KT 10SM CLR M04/M13 A3027 RMK AO2 SLP273 T10391133 56016
KAGC 012153Z 27004KT 10SM CLR M04/M13 A3027 RMK AO2 SLP274 T10391133



Page loaded:  22:20 UTC  |   02:20 PM Pacific  |   03:20 PM Mountain  |   04:20 PM Central  |   05:20 PM Eastern

 

ADVISORIES

FORECASTS

FORECASTS

OBSERVATIONS

USER TOOLS

ABOUT US